• Join FlightAware (Why Join?)
  • Login
  • US Flag 
10:00AM EDT


 

Airport Tracker/Info


-or-


 

Live Flight TrackerFlight Track Log ✈ N428CD ✈ 14-Jul-2013 ✈ KAZO - KANE

Flight Track Log - Related Links

Times and Time Zones

All times are in EDT time to prevent confusion due to time zone crossing. See the N428CD flight status page for this flight to view local times or setup timezone preferences in your user account.

Time Position Orientation Groundspeed Altitude Reporting Facility
EDT Latitude Longitude Course Direction KTS MPH feet Rate Location/Type
10:11AM 42.2581 -85.6175 347° North 145 167 3,300  Level Chicago Center
10:12AM 42.3014 -85.6311 347° North 147 169 4,000 660 Climbing Chicago Center
10:13AM 42.3400 -85.6483 342° North 147 169 4,700 720 Climbing Chicago Center
10:14AM 42.3883 -85.6575 352° North 147 169 5,500 720 Climbing Chicago Center
10:15AM 42.4306 -85.6586 359° North 150 173 6,200 660 Climbing Chicago Center
10:16AM 42.4725 -85.6611 357° North 151 174 6,900 660 Climbing Chicago Center
10:17AM 42.5153 -85.6633 358° North 153 176 7,600 600 Climbing Chicago Center
10:18AM 42.5603 -85.6650 358° North 159 183 8,200 540 Climbing Chicago Center
10:19AM 42.6019 -85.6886 337° Northwest 162 186 8,800 660 Climbing Chicago Center
10:20AM 42.6539 -85.7156 339° North 166 191 9,600 660 Climbing Chicago Center
10:21AM 42.6978 -85.7378 340° North 168 193 10,200 540 Climbing Chicago Center
10:22AM 42.7419 -85.7608 339° North 169 194 10,800 600 Climbing Chicago Center
10:23AM 42.7864 -85.7839 339° North 171 197 11,500 600 Climbing Chicago Center
10:24AM 42.8317 -85.8075 339° North 173 199 12,100 540 Climbing Chicago Center
10:25AM 42.8761 -85.8303 339° North 172 198 12,700 660 Climbing Chicago Center
10:26AM 42.9300 -85.8583 339° North 172 198 13,500 660 Climbing Chicago Center
10:27AM 42.9750 -85.8817 339° North 173 199 14,100 540 Climbing Chicago Center
10:28AM 43.0192 -85.9031 341° North 171 197 14,700 540 Climbing Chicago Center
10:29AM 43.0650 -85.9267 339° North 181 208 15,300 600 Climbing Chicago Center
10:30AM 43.1192 -85.9567 338° Northwest 176 203 16,000 300 Climbing Chicago Center
10:31AM 43.1681 -85.9828 339° North 183 211 16,000  Level Chicago Center
10:33AM 43.2236 -86.0106 340° North 199 229 16,000  Level Chicago Center
10:34AM 43.2767 -86.0386 339° North 204 235 16,000  Level Chicago Center
10:35AM 43.3303 -86.0672 339° North 206 237 16,000  Level Chicago Center
10:36AM 43.3831 -86.0950 339° North 205 236 16,000  Level Chicago Center
10:37AM 43.4461 -86.1283 339° North 203 234 16,000  Level Chicago Center
10:38AM 43.4992 -86.1564 339° North 204 235 16,000  Level Chicago Center
10:39AM 43.5517 -86.1844 339° North 203 234 16,000  Level Chicago Center
10:40AM 43.6031 -86.2117 339° North 200 230 16,000  Level Chicago Center
10:41AM 43.6553 -86.2397 339° North 200 230 16,000  Level Chicago Center
10:42AM 43.7081 -86.2675 339° North 203 234 16,000  Level Chicago Center
10:43AM 43.7703 -86.3022 338° Northwest 202 232 16,000  Level Chicago Center
10:44AM 43.8231 -86.3300 339° North 203 234 16,000  Level Chicago Center
10:45AM 43.8758 -86.3586 339° North 204 235 16,000  Level Chicago Center
10:46AM 43.9178 -86.3817 338° Northwest 204 235 16,000  Level Minneapolis Center
10:47AM 43.9686 -86.4133 336° Northwest 202 232 16,000  Level Minneapolis Center
10:48AM 43.9850 -86.4867 287° West 195 224 16,000  Level Minneapolis Center
10:49AM 44.0036 -86.5553 291° West 189 217 16,000  Level Minneapolis Center
10:50AM 44.0219 -86.6233 291° West 192 221 16,000  Level Minneapolis Center
10:51AM 44.0400 -86.6931 290° West 193 222 16,000  Level Minneapolis Center
10:52AM 44.0619 -86.7750 290° West 190 219 16,000  Level Minneapolis Center
10:53AM 44.0803 -86.8447 290° West 192 221 16,000  Level Minneapolis Center
10:54AM 44.0978 -86.9144 289° West 192 221 16,000  Level Minneapolis Center
10:55AM 44.1169 -86.9833 291° West 192 221 16,000  Level Minneapolis Center
10:56AM 44.1342 -87.0525 289° West 192 221 16,000  Level Minneapolis Center
10:57AM 44.1561 -87.1356 290° West 190 219 16,000  Level Minneapolis Center
10:58AM 44.1747 -87.2075 290° West 190 219 16,000  Level Minneapolis Center
10:59AM 44.1928 -87.2742 291° West 192 221 16,000  Level Minneapolis Center
11:00AM 44.2125 -87.3539 289° West 188 216 16,000  Level Minneapolis Center
11:01AM 44.2308 -87.4214 291° West 186 214 16,000  Level Minneapolis Center
11:02AM 44.2481 -87.4897 289° West 188 216 16,000  Level Minneapolis Center
11:03AM 44.2661 -87.5578 290° West 188 216 16,000  Level Minneapolis Center
11:04AM 44.2828 -87.6247 289° West 185 213 16,000  Level Minneapolis Center
11:05AM 44.3000 -87.6925 290° West 185 213 16,000  Level Minneapolis Center
11:06AM 44.3197 -87.7708 289° West 185 213 16,000  Level Minneapolis Center
11:07AM 44.3369 -87.8389 290° West 187 215 16,000  Level Minneapolis Center
11:08AM 44.3533 -87.9083 288° West 189 217 16,000  Level Minneapolis Center
11:09AM 44.3708 -87.9761 290° West 187 215 16,000  Level Minneapolis Center
11:11AM 44.3886 -88.0450 290° West 188 216 16,000  Level Minneapolis Center
11:12AM 44.4089 -88.1267 289° West 190 219 16,000  Level Minneapolis Center
11:13AM 44.4258 -88.1936 290° West 186 214 16,000  Level Minneapolis Center
11:14AM 44.4419 -88.2628 288° West 187 215 16,000  Level Minneapolis Center
11:15AM 44.4589 -88.3322 289° West 187 215 16,000  Level Minneapolis Center
11:16AM 44.4758 -88.4017 289° West 190 219 16,000  Level Minneapolis Center
11:17AM 44.4967 -88.4825 290° West 189 217 16,000  Level Minneapolis Center
11:18AM 44.5131 -88.5525 288° West 189 217 16,000  Level Minneapolis Center
11:19AM 44.5297 -88.6214 289° West 188 216 16,000  Level Minneapolis Center
11:20AM 44.5469 -88.6917 289° West 189 217 16,000  Level Minneapolis Center
11:21AM 44.5622 -88.7631 287° West 190 219 16,000  Level Minneapolis Center
11:22AM 44.5847 -88.8569 289° West 192 221 16,000  Level Minneapolis Center
11:23AM 44.6019 -88.9278 289° West 191 220 16,000  Level Minneapolis Center
11:24AM 44.6194 -88.9986 289° West 192 221 16,000  Level Minneapolis Center
11:25AM 44.6397 -89.0797 289° West 197 227 16,000  Level Minneapolis Center
11:26AM 44.6556 -89.1528 287° West 189 217 16,000  Level Minneapolis Center
11:27AM 44.6722 -89.2189 290° West 186 214 16,000  Level Minneapolis Center
11:28AM 44.6892 -89.2922 288° West 187 215 16,000  Level Minneapolis Center
11:29AM 44.7061 -89.3650 288° West 188 216 16,000  Level Minneapolis Center
11:30AM 44.7228 -89.4356 288° West 182 209 16,000  Level Minneapolis Center
11:31AM 44.7400 -89.5083 288° West 187 215 16,000  Level Minneapolis Center
11:32AM 44.7569 -89.5806 288° West 185 213 16,000  Level Minneapolis Center
11:33AM 44.7733 -89.6525 288° West 186 214 16,000  Level Minneapolis Center
11:34AM 44.7833 -89.7211 282° West 184 212 16,000  Level Minneapolis Center
11:36AM 44.7919 -89.7942 279° West 183 211 16,000  Level Minneapolis Center
11:37AM 44.8011 -89.8694 280° West 187 215 16,000  Level Minneapolis Center
11:38AM 44.8097 -89.9442 279° West 186 214 16,000  Level Minneapolis Center
11:39AM 44.8192 -90.0186 280° West 185 213 16,000  Level Minneapolis Center
11:40AM 44.8278 -90.0956 279° West 189 217 16,000  Level Minneapolis Center
11:41AM 44.8358 -90.1697 279° West 184 212 16,000  Level Minneapolis Center
11:42AM 44.8450 -90.2442 280° West 185 213 16,000  Level Minneapolis Center
11:43AM 44.8522 -90.3142 278° West 185 213 16,100  Climbing Minneapolis Center
11:44AM 44.8606 -90.3892 279° West 188 216 16,100  Level Minneapolis Center
11:45AM 44.8694 -90.4636 280° West 186 214 16,100 -60 Level Minneapolis Center
11:46AM 44.8792 -90.5417 280° West 190 219 16,000 -60 Descending Minneapolis Center
11:47AM 44.8867 -90.6158 278° West 191 220 16,000  Level Minneapolis Center
11:48AM 44.8953 -90.6889 279° West 190 219 16,000  Level Minneapolis Center
11:49AM 44.9036 -90.7631 279° West 192 221 16,000  Level Minneapolis Center
11:50AM 44.9111 -90.8358 278° West 189 217 16,000  Level Minneapolis Center
11:51AM 44.9189 -90.9108 278° West 191 220 16,000  Level Minneapolis Center
11:52AM 44.9281 -90.9853 280° West 191 220 16,000  Level Minneapolis Center
11:53AM 44.9364 -91.0756 277° West 193 222 16,000  Level Minneapolis Center
11:54AM 44.9458 -91.1472 281° West 190 219 16,000 -180 Level Minneapolis Center
11:55AM 44.9522 -91.2231 277° West 192 221 15,700 -300 Descending Minneapolis Center
11:56AM 44.9608 -91.3025 279° West 198 228 15,400 -240 Descending Minneapolis Center
11:57AM 44.9683 -91.3822 278° West 202 232 15,200 -420 Descending Minneapolis Center
11:58AM 44.9789 -91.4789 279° West 205 236 14,600 -540 Descending Minneapolis Center
11:59AM 44.9869 -91.5611 278° West 209 241 14,100 -540 Descending Minneapolis Center
12:00PM 44.9958 -91.6439 279° West 213 245 13,600 -540 Descending Minneapolis Center
12:01PM 45.0061 -91.7269 280° West 214 246 13,000 -600 Descending Minneapolis Center
12:02PM 45.0142 -91.8086 278° West 212 244 12,400 -660 Descending Minneapolis Center
12:03PM 45.0222 -91.8914 278° West 213 245 11,700 -960 Descending Minneapolis Center
12:04PM 45.0311 -91.9903 277° West 213 245 10,500 -1,380 Descending Minneapolis Center
12:06PM 45.0400 -92.0731 279° West 215 247 8,900 -1,500 Descending Minneapolis Center
12:07PM 45.0478 -92.1578 277° West 218 251 7,500 -1,080 Descending Minneapolis Center
12:08PM 45.0572 -92.2389 279° West 211 243 6,700 -660 Descending Minneapolis Center
12:09PM 45.0633 -92.3136 277° West 193 222 6,200 -360 Descending Minneapolis Center
12:10PM 45.0697 -92.3831 277° West 180 207 6,000 -120 Descending Minneapolis Center
12:11PM 45.0772 -92.4608 278° West 167 192 6,000  Level Minneapolis Center
12:12PM 45.0828 -92.5247 277° West 165 190 6,000  Level Minneapolis Center
12:13PM 45.0889 -92.5881 278° West 163 188 6,000  Level Minneapolis Center
12:14PM 45.0950 -92.6508 278° West 162 186 6,000 -300 Level Minneapolis Center
12:15PM 45.1008 -92.7164 277° West 168 193 5,400 -660 Descending Minneapolis Center
12:16PM 45.1069 -92.7847 277° West 174 200 4,700 -840 Descending Minneapolis Center
12:17PM 45.1139 -92.8653 277° West 174 200 3,700 -1,020 Descending Minneapolis Center
12:18PM 45.1208 -92.9308 279° West 171 197 2,700 -540 Descending Minneapolis Center
12:19PM 45.1281 -92.9872 280° West 149 171 2,600 -300 Descending Minneapolis Center
12:20PM 45.1333 -93.0431 278° West 144 166 2,200 -300 Descending Minneapolis Center
12:21PM 45.1353 -93.0983 273° West 142 163 2,000  Descending Minneapolis Center
12:22PM 45.1525 -93.1367 303° West 126 145 2,300  Climbing Minneapolis Center
12:23PM 45.1869 -93.1550 339° North 133 153 2,100 -540 Descending Minneapolis Center
12:24PM 45.1708 -93.1975 242° Southwest 129 148 1,300 -540 Descending Minneapolis Center
12:25PM 45.1489 -93.2264 223° Southwest 125 144 1,100 -240 Descending Minneapolis Center
12:27PM 45.1449 -93.2102 90° East  Level Estimated